createdAt,value
2019-05-06T00:00:56.464Z,5.80
2019-05-06T00:01:49.641Z,6.00
2019-05-06T00:02:48.630Z,5.70
2019-05-06T00:03:48.653Z,5.50
2019-05-06T00:04:48.612Z,5.90
2019-05-06T00:05:48.590Z,6.10
2019-05-06T00:06:48.608Z,6.20
2019-05-06T00:07:48.628Z,5.90
2019-05-06T00:08:48.579Z,5.50
2019-05-06T00:09:48.560Z,5.30
2019-05-06T00:10:48.540Z,5.60
2019-05-06T00:11:48.539Z,5.50
2019-05-06T00:12:48.529Z,5.40
2019-05-06T00:13:48.539Z,6.00
2019-05-06T00:14:48.492Z,6.00
2019-05-06T00:15:48.479Z,6.30
2019-05-06T00:16:48.502Z,6.10
2019-05-06T00:17:48.469Z,6.50
2019-05-06T00:18:48.449Z,5.80
2019-05-06T00:19:48.470Z,5.20
2019-05-06T00:20:48.429Z,5.90
2019-05-06T00:21:48.434Z,6.20
2019-05-06T00:22:48.409Z,5.70
2019-05-06T00:23:48.415Z,6.40
2019-05-06T00:24:48.391Z,5.70
2019-05-06T00:25:48.396Z,5.60
2019-05-06T00:26:48.359Z,6.20
2019-05-06T00:27:48.372Z,6.10
2019-05-06T00:28:48.349Z,6.10
2019-05-06T00:29:48.338Z,6.20
2019-05-06T00:30:48.354Z,5.80
2019-05-06T00:31:48.351Z,6.90
2019-05-06T00:32:48.311Z,6.20
2019-05-06T00:33:48.293Z,6.00
2019-05-06T00:34:48.278Z,5.60
2019-05-06T00:35:48.277Z,5.70
2019-05-06T00:36:48.278Z,5.50
2019-05-06T00:37:48.282Z,6.20
2019-05-06T00:38:48.238Z,5.80
2019-05-06T00:39:48.229Z,6.20
2019-05-06T00:40:48.216Z,6.10
2019-05-06T00:41:48.207Z,6.00
2019-05-06T00:42:48.197Z,5.60
2019-05-06T00:43:48.217Z,6.60
2019-05-06T00:44:48.170Z,5.70
2019-05-06T00:45:48.157Z,6.20
2019-05-06T00:46:48.147Z,5.90
2019-05-06T00:47:48.146Z,6.20
2019-05-06T00:48:48.127Z,6.30
2019-05-06T00:49:48.160Z,5.90
2019-05-06T00:50:48.120Z,6.00
2019-05-06T00:51:48.101Z,6.20
2019-05-06T00:52:48.087Z,6.00
2019-05-06T00:53:48.067Z,6.00
2019-05-06T00:54:48.079Z,6.10
2019-05-06T00:55:48.059Z,6.10
2019-05-06T00:56:48.056Z,5.80
2019-05-06T00:57:48.027Z,6.20
2019-05-06T00:58:48.017Z,6.20
2019-05-06T00:59:48.015Z,6.10
2019-05-06T01:00:48.006Z,5.90
2019-05-06T01:01:47.987Z,5.40
2019-05-06T01:02:48.008Z,5.90
2019-05-06T01:03:47.965Z,6.30
2019-05-06T01:04:47.956Z,5.90
2019-05-06T01:05:47.959Z,5.60
2019-05-06T01:06:47.935Z,6.10
2019-05-06T01:07:47.956Z,6.00
2019-05-06T01:08:47.934Z,5.90
2019-05-06T01:09:47.895Z,6.00
2019-05-06T01:10:47.898Z,6.10
2019-05-06T01:11:47.875Z,6.30
2019-05-06T01:12:47.875Z,6.20
2019-05-06T01:13:47.885Z,5.60
2019-05-06T01:14:47.854Z,6.20
2019-05-06T01:15:47.845Z,6.50
2019-05-06T01:16:47.825Z,5.90
2019-05-06T01:17:47.812Z,6.70
2019-05-06T01:18:47.814Z,6.50
2019-05-06T01:19:47.804Z,6.50
2019-05-06T01:20:47.784Z,6.20
2019-05-06T01:21:47.774Z,5.80
2019-05-06T01:22:47.763Z,5.80
2019-05-06T01:23:48.237Z,6.10
2019-05-06T01:24:47.743Z,6.40
2019-05-06T01:25:47.736Z,6.30
2019-05-06T01:26:47.734Z,6.40
2019-05-06T01:27:47.712Z,6.40
2019-05-06T01:28:47.713Z,6.10
2019-05-06T01:29:47.697Z,6.30
2019-05-06T01:30:47.713Z,6.00
2019-05-06T01:31:47.676Z,6.50
2019-05-06T01:32:47.643Z,6.20
2019-05-06T01:33:47.645Z,6.00
2019-05-06T01:34:47.631Z,6.20
2019-05-06T01:35:47.623Z,6.10
2019-05-06T01:36:47.903Z,5.90
2019-05-06T01:37:47.603Z,6.30
2019-05-06T01:38:47.593Z,6.20
2019-05-06T01:39:47.608Z,6.60
2019-05-06T01:40:47.561Z,6.00
2019-05-06T01:41:47.562Z,6.30
2019-05-06T01:42:47.553Z,6.30
2019-05-06T01:43:47.532Z,6.00
2019-05-06T01:44:47.539Z,5.80
2019-05-06T01:45:47.530Z,5.90
2019-05-06T01:46:47.502Z,6.00
2019-05-06T01:47:47.501Z,6.00
2019-05-06T01:48:47.501Z,6.10
2019-05-06T01:49:47.473Z,5.90
2019-05-06T01:50:47.471Z,6.30
2019-05-06T01:51:47.441Z,6.00
2019-05-06T01:52:47.443Z,6.40
2019-05-06T01:53:47.441Z,6.60
2019-05-06T01:54:47.411Z,6.20
2019-05-06T01:55:47.402Z,6.50
2019-05-06T01:56:47.411Z,6.20
2019-05-06T01:57:47.390Z,6.70
2019-05-06T01:58:47.371Z,6.40
2019-05-06T01:59:47.361Z,6.10
2019-05-06T02:00:47.350Z,6.20
2019-05-06T02:01:56.855Z,6.20
2019-05-06T02:02:48.370Z,6.20
2019-05-06T02:03:47.340Z,6.30
2019-05-06T02:04:47.313Z,6.70
2019-05-06T02:05:47.290Z,6.30
2019-05-06T02:06:47.281Z,6.30
2019-05-06T02:07:47.279Z,6.90
2019-05-06T02:08:47.294Z,6.10
2019-05-06T02:09:47.249Z,6.60
2019-05-06T02:10:47.241Z,6.40
2019-05-06T02:11:48.103Z,5.90
2019-05-06T02:12:47.219Z,6.00
2019-05-06T02:13:47.213Z,6.90
2019-05-06T02:14:47.199Z,6.20
2019-05-06T02:15:47.200Z,6.60
2019-05-06T02:16:47.180Z,6.60
2019-05-06T02:17:47.169Z,6.50
2019-05-06T02:18:47.159Z,6.20
2019-05-06T02:19:47.164Z,6.70
2019-05-06T02:20:47.141Z,6.50
2019-05-06T02:21:47.133Z,5.80
2019-05-06T02:22:47.120Z,6.40
2019-05-06T02:23:47.114Z,6.00
2019-05-06T02:24:47.089Z,6.60
2019-05-06T02:25:47.110Z,6.20
2019-05-06T02:26:47.068Z,6.60
2019-05-06T02:27:47.058Z,6.70
2019-05-06T02:28:47.042Z,6.60
2019-05-06T02:29:47.040Z,6.10
2019-05-06T02:30:47.029Z,6.30
2019-05-06T02:31:47.030Z,6.60
2019-05-06T02:32:47.003Z,6.40
2019-05-06T02:33:47.004Z,6.30
2019-05-06T02:34:47.029Z,6.70
2019-05-06T02:35:46.968Z,6.90
2019-05-06T02:36:46.958Z,6.40
2019-05-06T02:37:46.955Z,6.10
2019-05-06T02:38:51.449Z,6.90
2019-05-06T02:39:47.938Z,7.30
2019-05-06T02:40:46.941Z,6.80
2019-05-06T02:41:46.921Z,6.50
2019-05-06T02:42:46.911Z,6.20
2019-05-06T02:43:46.899Z,6.30
2019-05-06T02:44:46.877Z,6.90
2019-05-06T02:45:46.870Z,6.80
2019-05-06T02:46:46.866Z,6.70
2019-05-06T02:47:46.853Z,6.50
2019-05-06T02:48:46.831Z,6.60
2019-05-06T02:49:46.835Z,6.70
2019-05-06T02:50:46.806Z,7.00
2019-05-06T02:51:46.809Z,6.60
2019-05-06T02:52:46.786Z,7.20
2019-05-06T02:53:46.767Z,6.90
2019-05-06T02:54:46.767Z,7.00
2019-05-06T02:55:46.766Z,7.20
2019-05-06T02:56:46.736Z,7.30
2019-05-06T02:57:46.737Z,7.20
2019-05-06T02:58:46.725Z,7.20
2019-05-06T02:59:46.707Z,7.80
2019-05-06T03:00:46.707Z,7.40
2019-05-06T03:01:46.722Z,6.60
2019-05-06T03:02:48.116Z,7.60
2019-05-06T03:03:46.669Z,7.40
2019-05-06T03:04:46.658Z,7.50
2019-05-06T03:05:46.657Z,7.20
2019-05-06T03:06:46.645Z,7.40
2019-05-06T03:07:46.659Z,7.90
2019-05-06T03:08:46.606Z,7.40
2019-05-06T03:09:46.594Z,6.80
2019-05-06T03:10:46.608Z,7.90
2019-05-06T03:11:46.587Z,7.40
2019-05-06T03:12:46.576Z,7.40
2019-05-06T03:13:46.556Z,7.80
2019-05-06T03:14:46.567Z,8.20
2019-05-06T03:15:46.534Z,7.70
2019-05-06T03:16:46.536Z,7.40
2019-05-06T03:17:46.526Z,7.80
2019-05-06T03:18:46.497Z,7.00
2019-05-06T03:19:46.494Z,7.90
2019-05-06T03:20:46.495Z,7.70
2019-05-06T03:21:46.464Z,8.00
2019-05-06T03:22:46.495Z,7.50
2019-05-06T03:23:46.460Z,7.60
2019-05-06T03:24:46.453Z,7.60
2019-05-06T03:25:46.434Z,7.40
2019-05-06T03:26:46.424Z,7.70
2019-05-06T03:27:46.904Z,7.70
2019-05-06T03:28:46.415Z,7.80
2019-05-06T03:29:46.395Z,7.20
2019-05-06T03:30:46.519Z,7.40
2019-05-06T03:31:46.704Z,7.30
2019-05-06T03:33:21.700Z,7.60
2019-05-06T03:34:09.235Z,7.20
2019-05-06T03:35:13.769Z,7.30
2019-05-06T03:36:04.809Z,7.10
2019-05-06T03:36:48.759Z,7.30
2019-05-06T03:37:46.296Z,7.90
2019-05-06T03:38:46.293Z,7.10
2019-05-06T03:39:46.327Z,7.40
2019-05-06T03:40:46.288Z,7.60
2019-05-06T03:41:46.253Z,7.10
2019-05-06T03:42:46.277Z,7.40
2019-05-06T03:43:46.253Z,7.30
2019-05-06T03:44:46.235Z,7.70
2019-05-06T03:45:46.205Z,7.40
2019-05-06T03:46:46.193Z,8.00
2019-05-06T03:47:46.191Z,7.80
2019-05-06T03:48:46.182Z,7.50
2019-05-06T03:49:49.795Z,7.10
2019-05-06T03:50:46.162Z,7.60
2019-05-06T03:51:46.146Z,7.50
2019-05-06T03:52:46.144Z,7.50
2019-05-06T03:53:46.123Z,7.60
2019-05-06T03:54:46.139Z,7.30
2019-05-06T03:55:47.209Z,7.80
2019-05-06T03:56:46.103Z,7.80
2019-05-06T03:57:46.086Z,7.90
2019-05-06T03:58:46.098Z,7.50
2019-05-06T03:59:46.084Z,7.90
2019-05-06T04:00:46.044Z,7.70
2019-05-06T04:01:46.043Z,7.50
2019-05-06T04:02:46.032Z,7.60
2019-05-06T04:03:51.325Z,7.70
2019-05-06T04:04:47.023Z,7.80
2019-05-06T04:05:46.021Z,8.00
2019-05-06T04:06:45.991Z,8.00
2019-05-06T04:07:46.171Z,8.30
2019-05-06T04:08:45.975Z,7.40
2019-05-06T04:09:45.941Z,8.20
2019-05-06T04:10:45.941Z,8.30
2019-05-06T04:11:45.942Z,8.30
2019-05-06T04:12:45.919Z,8.40
2019-05-06T04:13:45.902Z,8.10
2019-05-06T04:14:45.911Z,8.40
2019-05-06T04:15:47.644Z,8.20
2019-05-06T04:16:45.895Z,8.00
2019-05-06T04:17:45.860Z,7.60
2019-05-06T04:18:45.872Z,8.30
2019-05-06T04:19:45.849Z,7.70
2019-05-06T04:20:45.838Z,8.10
2019-05-06T04:21:45.832Z,8.60
2019-05-06T04:22:45.809Z,8.50
2019-05-06T04:23:45.792Z,8.50
2019-05-06T04:24:45.786Z,7.90
2019-05-06T04:25:45.779Z,7.60
2019-05-06T04:26:46.480Z,8.00
2019-05-06T04:27:45.757Z,7.60
2019-05-06T04:28:45.773Z,8.20
2019-05-06T04:29:45.756Z,8.00
2019-05-06T04:30:45.728Z,8.20
2019-05-06T04:31:45.708Z,8.20
2019-05-06T04:32:45.701Z,8.10
2019-05-06T04:34:03.642Z,7.90
2019-05-06T04:34:46.677Z,8.00
2019-05-06T04:35:45.678Z,8.30
2019-05-06T04:36:45.677Z,7.70
2019-05-06T04:37:45.648Z,7.70
2019-05-06T04:38:45.653Z,8.00
2019-05-06T04:39:45.631Z,7.80
2019-05-06T04:40:45.631Z,7.90
2019-05-06T04:41:45.628Z,7.50
2019-05-06T04:42:45.608Z,7.50
2019-05-06T04:43:45.620Z,8.20
2019-05-06T04:44:45.579Z,7.80
2019-05-06T04:45:45.587Z,7.60
2019-05-06T04:46:45.557Z,7.20
2019-05-06T04:47:45.570Z,7.40
2019-05-06T04:48:45.536Z,7.10
2019-05-06T04:49:45.507Z,7.10
2019-05-06T04:50:45.527Z,7.10
2019-05-06T04:51:45.517Z,7.40
2019-05-06T04:52:45.498Z,7.40
2019-05-06T04:53:45.489Z,7.30
2019-05-06T04:54:45.457Z,7.60
2019-05-06T04:55:45.456Z,7.30
2019-05-06T04:56:45.448Z,7.40
2019-05-06T04:57:45.437Z,7.30
2019-05-06T04:58:45.447Z,7.00
2019-05-06T04:59:45.426Z,7.30
2019-05-06T05:00:45.395Z,7.10
2019-05-06T05:01:45.891Z,7.50
2019-05-06T05:02:46.371Z,7.40
2019-05-06T05:03:45.378Z,7.60
2019-05-06T05:04:45.355Z,7.30
2019-05-06T05:05:45.364Z,7.00
2019-05-06T05:06:45.335Z,7.60
2019-05-06T05:07:45.324Z,8.00
2019-05-06T05:08:45.328Z,7.70
2019-05-06T05:09:45.305Z,7.40
2019-05-06T05:10:45.285Z,7.50
2019-05-06T05:11:45.275Z,7.60
2019-05-06T05:12:45.287Z,7.50
2019-05-06T05:13:45.255Z,7.90
2019-05-06T05:14:45.245Z,7.40
2019-05-06T05:15:45.253Z,7.70
2019-05-06T05:16:45.226Z,7.80
2019-05-06T05:17:45.203Z,7.50
2019-05-06T05:18:45.211Z,7.60
2019-05-06T05:19:45.201Z,7.60
2019-05-06T05:20:46.758Z,7.60
2019-05-06T05:21:45.163Z,7.50
2019-05-06T05:22:45.153Z,7.80
2019-05-06T05:23:45.146Z,7.50
2019-05-06T05:24:45.148Z,7.70
2019-05-06T05:25:45.137Z,7.80
2019-05-06T05:26:47.025Z,7.50
2019-05-06T05:27:45.102Z,8.00
2019-05-06T05:28:45.103Z,7.80
2019-05-06T05:29:45.086Z,8.40
2019-05-06T05:30:45.073Z,9.10
2019-05-06T05:31:45.072Z,8.70
2019-05-06T05:32:45.042Z,7.50
2019-05-06T05:33:45.042Z,7.40
2019-05-06T05:34:45.021Z,7.80
2019-05-06T05:35:45.051Z,7.20
2019-05-06T05:36:44.993Z,7.30
2019-05-06T05:37:44.982Z,7.30
2019-05-06T05:38:45.001Z,7.20
2019-05-06T05:39:44.961Z,7.20
2019-05-06T05:40:44.952Z,8.00
2019-05-06T05:41:45.131Z,7.70
2019-05-06T05:42:44.964Z,7.80
2019-05-06T05:43:44.920Z,7.70
2019-05-06T05:44:44.920Z,7.20
2019-05-06T05:45:44.911Z,7.40
2019-05-06T05:46:44.891Z,7.50
2019-05-06T05:47:44.889Z,7.50
2019-05-06T05:48:44.869Z,7.30
2019-05-06T05:49:44.870Z,7.50
2019-05-06T05:50:44.870Z,7.90
2019-05-06T05:51:44.860Z,7.30
2019-05-06T05:52:44.820Z,7.30
2019-05-06T05:53:44.823Z,7.90
2019-05-06T05:54:44.809Z,7.50
2019-05-06T05:55:44.789Z,7.70
2019-05-06T05:56:44.812Z,6.80
2019-05-06T05:57:44.782Z,8.00
2019-05-06T05:58:44.770Z,7.10
2019-05-06T05:59:44.808Z,7.80
2019-05-06T06:00:44.749Z,7.40
2019-05-06T06:01:44.779Z,7.60
2019-05-06T06:02:44.786Z,7.40
2019-05-06T06:03:44.749Z,7.90
2019-05-06T06:04:53.884Z,7.60
2019-05-06T06:05:45.689Z,7.90
2019-05-06T06:06:44.676Z,7.80
2019-05-06T06:07:44.678Z,7.50
2019-05-06T06:08:44.809Z,7.70
2019-05-06T06:09:44.661Z,8.10
2019-05-06T06:10:44.638Z,8.10
2019-05-06T06:11:44.653Z,7.60
2019-05-06T06:12:44.628Z,7.80
2019-05-06T06:13:44.598Z,7.70
2019-05-06T06:14:47.354Z,7.50
2019-05-06T06:15:44.581Z,8.10
2019-05-06T06:16:44.568Z,7.60
2019-05-06T06:17:44.622Z,8.10
2019-05-06T06:18:44.587Z,8.20
2019-05-06T06:19:44.549Z,7.90
2019-05-06T06:20:44.569Z,8.40
2019-05-06T06:21:44.622Z,8.10
2019-05-06T06:22:44.573Z,8.30
2019-05-06T06:23:44.756Z,7.80
2019-05-06T06:24:44.500Z,7.90
2019-05-06T06:25:44.466Z,7.50
2019-05-06T06:26:44.466Z,7.50
2019-05-06T06:27:44.446Z,8.50
2019-05-06T06:28:44.455Z,7.90
2019-05-06T06:29:45.455Z,8.00
2019-05-06T06:30:44.429Z,8.00
2019-05-06T06:31:44.406Z,7.90
2019-05-06T06:32:44.396Z,7.60
2019-05-06T06:33:44.386Z,8.10
2019-05-06T06:34:44.385Z,7.70
2019-05-06T06:35:44.366Z,8.50
2019-05-06T06:36:44.368Z,7.80
2019-05-06T06:37:44.347Z,8.00
2019-05-06T06:38:44.345Z,7.80
2019-05-06T06:39:44.344Z,7.50
2019-05-06T06:40:44.314Z,8.40
2019-05-06T06:41:44.295Z,8.00
2019-05-06T06:42:44.284Z,8.50
2019-05-06T06:43:44.265Z,7.90
2019-05-06T06:44:44.264Z,7.90
2019-05-06T06:45:44.277Z,8.30
2019-05-06T06:46:44.255Z,7.80
2019-05-06T06:47:44.242Z,7.70
2019-05-06T06:48:44.224Z,8.30
2019-05-06T06:49:44.227Z,8.40
2019-05-06T06:50:44.193Z,8.00
2019-05-06T06:51:44.204Z,8.20
2019-05-06T06:52:44.178Z,8.30
2019-05-06T06:53:44.164Z,9.40
2019-05-06T06:54:44.164Z,8.40
2019-05-06T06:55:44.161Z,8.40
2019-05-06T06:56:44.123Z,8.30
2019-05-06T06:57:44.123Z,8.50
2019-05-06T06:58:44.103Z,8.80
2019-05-06T06:59:44.124Z,8.60
2019-05-06T07:00:44.092Z,8.80
2019-05-06T07:01:44.083Z,8.90
2019-05-06T07:02:44.152Z,8.40
2019-05-06T07:03:44.255Z,8.50
2019-05-06T07:04:44.103Z,8.50
2019-05-06T07:05:44.046Z,8.60
2019-05-06T07:06:44.091Z,8.30
2019-05-06T07:07:47.285Z,8.20
2019-05-06T07:08:44.017Z,8.80
2019-05-06T07:09:43.998Z,8.70
2019-05-06T07:10:43.986Z,7.90
2019-05-06T07:11:43.963Z,8.90
2019-05-06T07:12:43.973Z,8.50
2019-05-06T07:13:43.952Z,8.80
2019-05-06T07:14:43.932Z,8.20
2019-05-06T07:15:43.934Z,8.60
2019-05-06T07:16:43.923Z,8.50
2019-05-06T07:17:43.901Z,8.40
2019-05-06T07:18:43.905Z,8.20
2019-05-06T07:19:43.882Z,8.90
2019-05-06T07:20:43.872Z,8.50
2019-05-06T07:21:44.325Z,8.20
2019-05-06T07:22:43.865Z,8.30
2019-05-06T07:23:43.841Z,8.90
2019-05-06T07:24:43.833Z,8.40
2019-05-06T07:25:43.811Z,7.80
2019-05-06T07:26:43.828Z,7.80
2019-05-06T07:27:43.789Z,8.40
2019-05-06T07:28:43.898Z,8.40
2019-05-06T07:29:48.099Z,8.30
2019-05-06T07:30:44.761Z,8.00
2019-05-06T07:31:43.778Z,8.50
2019-05-06T07:32:43.731Z,7.90
2019-05-06T07:33:43.720Z,7.60
2019-05-06T07:34:43.720Z,7.80
2019-05-06T07:35:44.023Z,7.80
2019-05-06T07:36:43.720Z,8.20
2019-05-06T07:37:43.753Z,8.40
2019-05-06T07:38:43.802Z,8.10
2019-05-06T07:39:43.747Z,8.40
2019-05-06T07:40:43.640Z,7.50
2019-05-06T07:41:46.106Z,8.00
2019-05-06T07:42:43.639Z,7.80
2019-05-06T07:43:43.624Z,8.00
2019-05-06T07:44:43.622Z,7.40
2019-05-06T07:45:43.603Z,7.30
2019-05-06T07:46:43.589Z,6.80
2019-05-06T07:47:43.625Z,7.00
2019-05-06T07:48:43.559Z,6.70
2019-05-06T07:49:43.572Z,7.40
2019-05-06T07:50:43.559Z,7.10
2019-05-06T07:51:43.521Z,7.10
2019-05-06T07:52:43.542Z,7.00
2019-05-06T07:53:43.509Z,6.70
2019-05-06T07:54:43.503Z,6.20
2019-05-06T07:55:43.498Z,6.30
2019-05-06T07:56:43.478Z,6.40
2019-05-06T07:57:43.469Z,6.60
2019-05-06T07:58:43.647Z,6.10
2019-05-06T07:59:43.450Z,6.50
2019-05-06T08:00:43.436Z,6.50
2019-05-06T08:01:44.089Z,6.60
2019-05-06T08:02:43.414Z,6.20
2019-05-06T08:03:43.412Z,5.80
2019-05-06T08:04:43.391Z,5.70
2019-05-06T08:05:54.627Z,5.90
2019-05-06T08:06:44.374Z,6.00
2019-05-06T08:07:43.348Z,5.60
2019-05-06T08:08:43.650Z,5.60
2019-05-06T08:09:43.334Z,5.40
2019-05-06T08:10:43.328Z,5.40
2019-05-06T08:11:43.308Z,5.40
2019-05-06T08:12:43.307Z,5.40
2019-05-06T08:13:43.633Z,4.80
2019-05-06T08:14:43.495Z,5.00
2019-05-06T08:15:43.289Z,4.70
2019-05-06T08:16:44.474Z,5.00
2019-05-06T08:17:43.250Z,5.80
2019-05-06T08:18:43.233Z,5.70
2019-05-06T08:19:43.216Z,5.40
2019-05-06T08:20:43.207Z,5.20
2019-05-06T08:21:43.198Z,5.20
2019-05-06T08:22:43.209Z,4.90
2019-05-06T08:23:43.189Z,4.50
2019-05-06T08:24:43.185Z,4.70
2019-05-06T08:25:43.212Z,4.50
2019-05-06T08:26:43.150Z,4.80
2019-05-06T08:27:43.136Z,5.10
2019-05-06T08:28:44.450Z,4.80
2019-05-06T08:29:43.145Z,5.00
2019-05-06T08:30:43.386Z,5.10
2019-05-06T08:31:43.194Z,5.00
2019-05-06T08:32:43.081Z,5.10
2019-05-06T08:33:43.308Z,5.10
2019-05-06T08:34:43.046Z,4.90
2019-05-06T08:35:43.046Z,5.00
2019-05-06T08:36:43.037Z,5.00
2019-05-06T08:37:43.031Z,4.60
2019-05-06T08:38:43.017Z,4.60
2019-05-06T08:39:45.830Z,4.60
2019-05-06T08:40:43.262Z,4.70
2019-05-06T08:41:42.976Z,4.50
2019-05-06T08:42:42.967Z,4.50
2019-05-06T08:43:42.970Z,4.80
2019-05-06T08:44:42.946Z,4.30
2019-05-06T08:45:42.947Z,4.70
2019-05-06T08:46:43.548Z,4.40
2019-05-06T08:47:42.926Z,4.30
2019-05-06T08:48:42.966Z,4.40
2019-05-06T08:49:43.096Z,4.50
2019-05-06T08:50:42.875Z,4.10
2019-05-06T08:51:43.275Z,4.20
2019-05-06T08:52:42.865Z,4.30
2019-05-06T08:53:42.836Z,4.30
2019-05-06T08:54:43.323Z,4.20
2019-05-06T08:55:42.815Z,4.50
2019-05-06T08:56:42.846Z,4.20
2019-05-06T08:57:42.812Z,4.40
2019-05-06T08:58:43.233Z,4.20
2019-05-06T08:59:42.775Z,4.00
2019-05-06T09:00:42.913Z,3.90
2019-05-06T09:01:42.766Z,4.10
2019-05-06T09:02:46.015Z,4.10
2019-05-06T09:03:42.762Z,4.20
2019-05-06T09:04:42.997Z,4.20
2019-05-06T09:05:42.877Z,4.10
2019-05-06T09:06:43.267Z,4.10
2019-05-06T09:07:43.049Z,4.20
2019-05-06T09:08:43.021Z,3.80
2019-05-06T09:09:42.695Z,3.50
2019-05-06T09:10:43.003Z,3.50
2019-05-06T09:11:43.340Z,3.60
2019-05-06T09:12:42.645Z,3.40
2019-05-06T09:13:42.933Z,3.70
2019-05-06T09:14:43.169Z,3.70
2019-05-06T09:15:42.942Z,3.60
2019-05-06T09:16:43.850Z,3.60
2019-05-06T09:17:42.574Z,3.40
2019-05-06T09:18:42.789Z,3.10
2019-05-06T09:19:42.816Z,3.50
2019-05-06T09:20:43.157Z,2.80
2019-05-06T09:21:46.021Z,3.10
2019-05-06T09:22:42.931Z,3.20
2019-05-06T09:23:42.583Z,3.50
2019-05-06T09:24:42.817Z,3.20
2019-05-06T09:25:42.597Z,3.10
2019-05-06T09:26:43.081Z,3.00
2019-05-06T09:27:42.478Z,3.10
2019-05-06T09:28:42.772Z,3.30
2019-05-06T09:29:43.141Z,3.10
2019-05-06T09:30:43.235Z,3.20
2019-05-06T09:31:42.827Z,3.40
2019-05-06T09:32:42.848Z,3.50
2019-05-06T09:33:42.601Z,3.60
2019-05-06T09:34:43.096Z,3.90
2019-05-06T09:35:42.400Z,3.80
2019-05-06T09:36:51.383Z,2.90
2019-05-06T09:37:43.355Z,3.60
2019-05-06T09:38:42.585Z,3.30
2019-05-06T09:39:43.010Z,3.20
2019-05-06T09:40:43.322Z,3.20
2019-05-06T09:41:47.419Z,3.10
2019-05-06T09:42:43.333Z,3.80
2019-05-06T09:43:43.382Z,3.40
2019-05-06T09:44:42.866Z,3.10
2019-05-06T09:45:42.624Z,3.50
2019-05-06T09:46:42.805Z,3.10
2019-05-06T09:47:42.599Z,3.40
2019-05-06T09:48:42.577Z,3.70
2019-05-06T09:49:42.669Z,3.60
2019-05-06T09:50:46.004Z,4.10
2019-05-06T09:51:42.560Z,3.50
2019-05-06T09:52:42.837Z,3.60
2019-05-06T09:53:43.276Z,3.60
2019-05-06T09:54:42.817Z,3.40
2019-05-06T09:55:43.014Z,3.10
2019-05-06T09:56:42.734Z,3.00
2019-05-06T09:57:42.680Z,2.80
2019-05-06T09:58:42.908Z,2.90
2019-05-06T09:59:42.280Z,2.30
2019-05-06T10:00:42.915Z,2.40
2019-05-06T10:01:43.782Z,2.40
2019-05-06T10:02:42.985Z,3.00
2019-05-06T10:03:42.628Z,3.20
2019-05-06T10:04:42.847Z,2.90
2019-05-06T10:05:42.576Z,2.90
2019-05-06T10:06:55.733Z,2.90
2019-05-06T10:07:43.033Z,3.10
2019-05-06T10:08:42.044Z,3.70
2019-05-06T10:09:43.428Z,3.10
2019-05-06T10:10:53.710Z,3.10
2019-05-06T10:11:42.995Z,2.90
2019-05-06T10:12:42.067Z,3.20
2019-05-06T10:13:43.077Z,3.50
2019-05-06T10:14:43.286Z,3.30
2019-05-06T10:15:42.845Z,3.50
2019-05-06T10:16:43.034Z,3.60
2019-05-06T10:17:42.836Z,3.70
2019-05-06T10:18:41.914Z,3.40
2019-05-06T10:19:42.982Z,3.60
2019-05-06T10:20:42.692Z,3.80
2019-05-06T10:21:42.742Z,3.80
2019-05-06T10:22:43.038Z,3.40
2019-05-06T10:23:42.433Z,3.90
2019-05-06T10:24:43.142Z,3.80
2019-05-06T10:25:43.650Z,3.70
2019-05-06T10:26:43.218Z,3.40
2019-05-06T10:27:42.302Z,3.50
2019-05-06T10:28:41.820Z,3.10
2019-05-06T10:29:43.212Z,3.30
2019-05-06T10:30:41.804Z,3.50
2019-05-06T10:31:43.172Z,3.10
2019-05-06T10:32:42.659Z,3.70
2019-05-06T10:33:42.707Z,3.60
2019-05-06T10:34:43.510Z,4.20
2019-05-06T10:35:42.899Z,4.00
2019-05-06T10:36:42.741Z,4.40
2019-05-06T10:37:42.264Z,4.10
2019-05-06T10:38:42.392Z,4.00
2019-05-06T10:39:41.683Z,5.10
2019-05-06T10:40:57.303Z,4.20
2019-05-06T10:41:42.674Z,4.80
2019-05-06T10:42:43.014Z,4.50
2019-05-06T10:43:43.128Z,4.50
2019-05-06T10:44:42.784Z,4.70
2019-05-06T10:45:42.666Z,4.20
2019-05-06T10:46:43.077Z,4.70
2019-05-06T10:47:42.344Z,4.90
2019-05-06T10:48:42.409Z,4.50
2019-05-06T10:49:42.087Z,4.80
2019-05-06T10:50:41.563Z,4.60
2019-05-06T10:51:42.758Z,4.50
2019-05-06T10:52:41.552Z,4.70
2019-05-06T10:53:42.471Z,4.80
2019-05-06T10:54:42.133Z,4.70
2019-05-06T10:55:42.741Z,4.50
2019-05-06T10:56:50.754Z,4.70
2019-05-06T10:57:43.091Z,4.50
2019-05-06T10:58:43.781Z,5.10
2019-05-06T10:59:42.904Z,4.50
2019-05-06T11:00:42.459Z,4.80
2019-05-06T11:01:42.660Z,4.40
2019-05-06T11:02:43.039Z,4.90
2019-05-06T11:03:42.009Z,4.70
2019-05-06T11:04:42.598Z,4.40
2019-05-06T11:05:43.120Z,4.40
2019-05-06T11:06:43.007Z,4.40
2019-05-06T11:07:43.139Z,4.40
2019-05-06T11:08:42.086Z,4.40
2019-05-06T11:09:42.624Z,5.00
2019-05-06T11:10:44.906Z,4.50
2019-05-06T11:11:42.765Z,4.60
2019-05-06T11:12:43.057Z,4.80
2019-05-06T11:13:41.321Z,4.70
2019-05-06T11:14:41.316Z,4.30
2019-05-06T11:15:43.457Z,4.60
2019-05-06T11:16:41.293Z,4.10
2019-05-06T11:17:43.648Z,4.50
2019-05-06T11:18:42.580Z,5.50
2019-05-06T11:19:42.769Z,4.60
2019-05-06T11:20:43.639Z,4.30
2019-05-06T11:21:44.699Z,4.80
2019-05-06T11:22:43.366Z,4.70
2019-05-06T11:23:41.864Z,5.20
2019-05-06T11:24:42.172Z,5.10
2019-05-06T11:25:43.160Z,4.80
2019-05-06T11:26:42.962Z,4.80
2019-05-06T11:27:42.598Z,5.50
2019-05-06T11:28:42.644Z,5.30
2019-05-06T11:29:43.541Z,5.20
2019-05-06T11:30:42.493Z,5.20
2019-05-06T11:31:43.187Z,5.30
2019-05-06T11:32:42.119Z,5.20
2019-05-06T11:33:42.539Z,5.30
2019-05-06T11:37:01.882Z,4.80
2019-05-06T11:38:01.841Z,5.60
2019-05-06T11:39:01.866Z,5.60
2019-05-06T11:40:01.821Z,5.20
2019-05-06T11:41:01.791Z,5.20
2019-05-06T11:42:23.757Z,5.10
2019-05-06T11:43:02.796Z,5.00
2019-05-06T11:44:01.773Z,5.40
2019-05-06T11:45:03.191Z,5.30
2019-05-06T11:46:01.801Z,5.50
2019-05-06T11:47:03.458Z,5.20
2019-05-06T11:48:01.846Z,5.40
2019-05-06T11:49:01.721Z,5.20
2019-05-06T11:50:04.793Z,5.30
2019-05-06T11:51:01.731Z,5.70
2019-05-06T11:52:02.363Z,5.60
2019-05-06T11:53:02.441Z,5.20
2019-05-06T11:54:04.406Z,5.80
2019-05-06T11:55:02.682Z,5.70
2019-05-06T11:56:02.113Z,5.50
2019-05-06T11:57:02.951Z,5.40
2019-05-06T11:58:02.726Z,5.90
2019-05-06T11:59:02.476Z,5.60
2019-05-06T12:00:03.078Z,5.60
2019-05-06T12:01:02.733Z,5.30
2019-05-06T12:02:02.515Z,5.10
2019-05-06T12:03:02.398Z,5.30
2019-05-06T12:04:02.607Z,5.00
2019-05-06T12:05:02.368Z,4.80
2019-05-06T12:06:03.657Z,5.10
2019-05-06T12:07:10.273Z,5.10
2019-05-06T12:08:08.081Z,4.90
2019-05-06T12:09:06.509Z,4.60
2019-05-06T12:10:02.510Z,5.00
2019-05-06T12:11:02.911Z,4.40
2019-05-06T12:12:03.348Z,4.90
2019-05-06T12:13:02.809Z,4.90
2019-05-06T12:14:02.540Z,4.90
2019-05-06T12:15:03.596Z,5.30
2019-05-06T12:16:02.400Z,5.50
2019-05-06T12:17:02.282Z,5.40
2019-05-06T12:18:03.622Z,5.50
2019-05-06T12:19:02.785Z,5.70
2019-05-06T12:20:03.023Z,5.50
2019-05-06T12:21:09.023Z,5.40
2019-05-06T12:22:02.377Z,6.00
2019-05-06T12:23:04.472Z,6.20
2019-05-06T12:24:02.890Z,6.30
2019-05-06T12:25:04.457Z,6.00
2019-05-06T12:26:02.514Z,5.80
2019-05-06T12:27:03.287Z,5.90
2019-05-06T12:28:03.048Z,5.70
2019-05-06T12:29:02.241Z,5.60
2019-05-06T12:30:05.344Z,5.50
2019-05-06T12:31:01.256Z,5.30
2019-05-06T12:32:03.518Z,5.80
2019-05-06T12:33:03.131Z,5.90
2019-05-06T12:34:02.732Z,6.00
2019-05-06T12:35:03.359Z,5.60
2019-05-06T12:36:02.553Z,6.10
2019-05-06T12:37:02.703Z,6.10
2019-05-06T12:38:05.157Z,6.10
2019-05-06T12:39:06.351Z,6.20
2019-05-06T12:40:03.267Z,6.10
2019-05-06T12:41:03.361Z,6.00
2019-05-06T12:42:01.140Z,6.00
2019-05-06T12:43:03.930Z,5.90
2019-05-06T12:44:03.111Z,6.50
2019-05-06T12:45:03.542Z,6.40
2019-05-06T12:46:02.809Z,6.20
2019-05-06T12:47:03.372Z,6.40
2019-05-06T12:48:03.049Z,6.40
2019-05-06T12:49:03.153Z,6.40
2019-05-06T12:50:02.794Z,6.20
2019-05-06T12:51:02.966Z,6.10
2019-05-06T12:52:01.036Z,6.90
2019-05-06T12:53:01.051Z,6.70
2019-05-06T12:54:03.293Z,6.70
2019-05-06T12:55:17.000Z,7.20
2019-05-06T12:56:03.192Z,6.50
2019-05-06T12:57:03.295Z,7.00
2019-05-06T12:58:02.876Z,7.20
2019-05-06T12:59:02.162Z,7.20
2019-05-06T13:00:03.439Z,18.10
2019-05-06T13:01:03.942Z,6.50
2019-05-06T13:02:02.752Z,6.20
2019-05-06T13:03:02.324Z,6.00
2019-05-06T13:04:04.104Z,6.00
2019-05-06T13:05:03.913Z,6.60
2019-05-06T13:06:06.898Z,6.50
2019-05-06T13:07:03.022Z,6.60
2019-05-06T13:08:05.505Z,7.10
2019-05-06T13:09:04.995Z,6.70
2019-05-06T13:10:02.833Z,6.60
2019-05-06T13:11:02.615Z,6.30
2019-05-06T13:12:03.254Z,6.60
2019-05-06T13:13:00.805Z,6.30
2019-05-06T13:14:03.944Z,6.50
2019-05-06T13:15:03.308Z,6.40
2019-05-06T13:16:02.767Z,6.50
2019-05-06T13:17:02.693Z,6.40
2019-05-06T13:18:06.462Z,6.70
2019-05-06T13:19:03.334Z,6.30
2019-05-06T13:20:00.725Z,6.20
2019-05-06T13:21:04.402Z,6.40